Time;durP1;ratioP1;P1;durP2;ratioP2;P2;SDS_P1;SDS_P2;PMS_P1;PMS_P2;Temp;Humidity;BMP_temperature;BMP_pressure;BME280_temperature;BME280_humidity;BME280_pressure;Samples;Min_cycle;Max_cycle;Signal;HPM_P1;HPM_P2
2023/06/03 00:00:09;;;;;;;2.78;0.77;;;12.80;94.30;;;;;;4184645;28;20045;-86
2023/06/03 00:02:10;;;;;;;0.88;0.57;;;12.80;94.30;;;;;;4201170;28;20079;-86
2023/06/03 00:04:14;;;;;;;1.52;0.70;;;12.70;94.10;;;;;;4185373;28;20052;-86
2023/06/03 00:06:14;;;;;;;4.40;1.33;;;12.70;94.10;;;;;;4184562;28;20084;-86
2023/06/03 00:08:15;;;;;;;2.17;0.80;;;12.70;94.10;;;;;;4185118;28;20056;-86
2023/06/03 00:10:16;;;;;;;2.22;1.00;;;12.70;94.00;;;;;;4185007;28;20041;-86
2023/06/03 00:12:19;;;;;;;1.27;0.70;;;12.60;93.90;;;;;;4185606;28;20053;-86
2023/06/03 00:14:19;;;;;;;2.33;0.80;;;12.60;93.90;;;;;;4202734;28;20036;-86
2023/06/03 00:16:22;;;;;;;0.60;0.40;;;12.60;93.90;;;;;;4201681;28;20106;-86
2023/06/03 00:18:23;;;;;;;3.50;0.77;;;12.60;93.90;;;;;;4201347;28;20087;-86
2023/06/03 00:20:25;;;;;;;2.10;1.00;;;12.50;93.80;;;;;;4184722;28;20425;-87
2023/06/03 00:22:27;;;;;;;14.40;6.50;;;12.50;93.80;;;;;;4186059;28;20060;-87
2023/06/03 00:24:29;;;;;;;11.70;7.13;;;12.50;93.90;;;;;;4218561;28;20048;-86
2023/06/03 00:26:30;;;;;;;8.98;3.17;;;12.40;94.00;;;;;;4218394;28;20047;-86
2023/06/03 00:28:31;;;;;;;1.98;1.17;;;12.40;94.00;;;;;;4199231;28;20539;-86
2023/06/03 00:30:31;;;;;;;1.70;0.95;;;12.30;93.90;;;;;;4199369;28;20510;-87
2023/06/03 00:32:33;;;;;;;6.75;1.45;;;12.30;93.80;;;;;;4218098;28;20127;-86
2023/06/03 00:34:34;;;;;;;2.90;1.27;;;12.30;93.80;;;;;;4217502;28;20438;-87
2023/06/03 00:36:35;;;;;;;2.47;1.10;;;12.30;93.70;;;;;;4217932;28;20048;-86
2023/06/03 00:38:36;;;;;;;1.65;0.80;;;12.30;93.60;;;;;;4217711;28;20488;-86
2023/06/03 00:40:37;;;;;;;3.17;0.95;;;12.30;93.60;;;;;;4188949;28;20076;-86
2023/06/03 00:42:37;;;;;;;4.63;0.98;;;12.30;93.60;;;;;;4184691;28;20068;-86
2023/06/03 00:44:38;;;;;;;1.92;0.90;;;12.30;93.60;;;;;;4183626;28;20080;-86
2023/06/03 00:46:41;;;;;;;2.00;1.10;;;12.30;93.70;;;;;;4184521;28;20045;-86
2023/06/03 00:48:42;;;;;;;1.52;0.70;;;11.70;93.50;;;;;;4200981;28;20512;-86
2023/06/03 00:50:43;;;;;;;4.47;0.93;;;12.20;93.70;;;;;;4183050;28;20049;-86
2023/06/03 00:52:46;;;;;;;2.28;0.70;;;12.20;93.70;;;;;;4182179;28;20132;-86
2023/06/03 00:54:51;;;;;;;4.13;1.48;;;12.20;93.70;;;;;;4183259;28;20063;-86
2023/06/03 00:56:52;;;;;;;1.00;0.50;;;12.20;93.70;;;;;;4187862;28;20055;-86
2023/06/03 00:58:53;;;;;;;2.58;0.50;;;12.20;93.90;;;;;;4165811;28;20138;-86
2023/06/03 01:00:55;;;;;;;2.15;0.60;;;12.10;94.00;;;;;;4184791;28;20049;-86
2023/06/03 01:02:56;;;;;;;1.27;0.60;;;12.10;94.10;;;;;;4182502;28;20045;-86
2023/06/03 01:04:57;;;;;;;1.23;0.60;;;12.10;94.10;;;;;;4182984;28;20113;-86
2023/06/03 01:07:16;;;;;;;1.00;0.60;;;12.10;94.20;;;;;;4182295;28;20472;-86
2023/06/03 01:09:57;;;;;;;1.40;0.65;;;12.10;94.40;;;;;;4199362;28;20044;-86
2023/06/03 01:12:23;;;;;;;7.05;0.95;;;12.00;94.30;;;;;;4183251;28;20074;-86
2023/06/03 01:14:42;;;;;;;3.13;0.60;;;12.00;94.50;;;;;;4203777;28;20166;-86
2023/06/03 01:16:47;;;;;;;3.90;0.77;;;12.00;94.40;;;;;;4197408;28;20158;-85
2023/06/03 01:18:49;;;;;;;5.75;1.42;;;12.00;94.40;;;;;;4200833;28;20052;-84
2023/06/03 01:20:50;;;;;;;1.17;0.65;;;11.90;94.60;;;;;;4217350;28;20507;-86
2023/06/03 01:22:56;;;;;;;1.40;0.88;;;11.90;94.70;;;;;;4199774;28;20049;-86
2023/06/03 01:25:09;;;;;;;3.25;1.30;;;11.90;94.70;;;;;;4199223;28;20033;-86
2023/06/03 01:27:12;;;;;;;1.75;0.77;;;11.90;94.90;;;;;;4217657;28;20036;-86
2023/06/03 01:29:12;;;;;;;2.30;1.08;;;11.80;94.80;;;;;;4183730;28;20051;-87
2023/06/03 01:31:13;;;;;;;3.15;0.50;;;11.80;94.80;;;;;;4198920;28;20127;-86
2023/06/03 01:33:15;;;;;;;2.20;0.65;;;11.80;94.70;;;;;;4206475;28;20055;-86
2023/06/03 01:35:17;;;;;;;1.75;0.70;;;11.70;94.70;;;;;;4199794;28;20044;-86
2023/06/03 01:37:19;;;;;;;2.25;0.75;;;11.70;94.80;;;;;;4201045;28;20153;-86
2023/06/03 01:39:20;;;;;;;1.17;0.70;;;11.70;94.90;;;;;;4200062;28;20162;-86
2023/06/03 01:41:21;;;;;;;1.73;0.60;;;11.60;94.90;;;;;;4182584;28;20530;-86
2023/06/03 01:43:23;;;;;;;1.70;0.50;;;11.60;95.00;;;;;;4182631;28;20049;-86
2023/06/03 01:45:25;;;;;;;3.55;0.77;;;11.60;95.00;;;;;;4181947;28;20045;-86
2023/06/03 01:47:26;;;;;;;2.80;0.75;;;11.60;95.20;;;;;;4200484;28;20033;-86
2023/06/03 01:49:31;;;;;;;0.70;0.40;;;11.60;95.20;;;;;;4185860;28;20516;-86
2023/06/03 01:51:31;;;;;;;2.55;0.57;;;11.60;95.20;;;;;;4201002;28;20488;-86
2023/06/03 01:53:32;;;;;;;1.55;0.60;;;11.60;95.30;;;;;;4181886;28;20128;-84
2023/06/03 01:55:33;;;;;;;3.13;0.50;;;11.60;95.50;;;;;;4200314;28;20087;-86
2023/06/03 01:57:35;;;;;;;1.25;0.50;;;11.50;95.60;;;;;;4182450;28;20047;-86
2023/06/03 01:59:36;;;;;;;0.82;0.47;;;11.50;95.70;;;;;;4182212;28;20059;-85
2023/06/03 02:01:36;;;;;;;2.10;0.60;;;11.50;95.80;;;;;;4200547;28;20040;-85
2023/06/03 02:03:37;;;;;;;1.17;0.63;;;11.50;96.00;;;;;;4200012;28;20045;-85
2023/06/03 02:05:38;;;;;;;3.78;0.90;;;11.50;96.20;;;;;;4205217;28;20496;-85
2023/06/03 02:07:42;;;;;;;5.32;1.00;;;11.40;96.30;;;;;;4205973;28;20143;-85
2023/06/03 02:09:44;;;;;;;5.03;0.80;;;11.40;96.60;;;;;;4199176;28;20052;-85
2023/06/03 02:11:44;;;;;;;1.50;0.63;;;11.40;96.60;;;;;;4199334;28;20063;-86
2023/06/03 02:13:46;;;;;;;5.53;1.23;;;11.30;96.90;;;;;;4192935;28;20045;-86
2023/06/03 02:15:47;;;;;;;1.83;0.68;;;11.30;97.00;;;;;;4183193;28;20417;-86
2023/06/03 02:17:48;;;;;;;2.25;0.60;;;11.20;97.20;;;;;;4181500;28;20055;-86
2023/06/03 02:19:49;;;;;;;1.98;0.82;;;11.20;97.30;;;;;;4191456;28;20056;-85
2023/06/03 02:21:50;;;;;;;3.03;0.77;;;11.20;97.40;;;;;;4197809;28;20048;-86
2023/06/03 02:23:51;;;;;;;1.27;0.57;;;11.10;97.50;;;;;;4200288;28;20048;-86
2023/06/03 02:25:52;;;;;;;1.17;0.68;;;11.10;97.70;;;;;;4197531;28;20396;-86
2023/06/03 02:27:54;;;;;;;3.95;0.70;;;11.10;97.80;;;;;;4190232;28;20513;-86
2023/06/03 02:29:57;;;;;;;1.17;0.70;;;11.10;97.90;;;;;;4183884;28;20547;-86
2023/06/03 02:31:59;;;;;;;1.05;0.50;;;11.00;97.90;;;;;;4182897;28;20408;-86
2023/06/03 02:34:00;;;;;;;3.10;0.98;;;11.00;98.00;;;;;;4184283;28;20056;-86
2023/06/03 02:36:09;;;;;;;2.30;0.75;;;11.00;98.10;;;;;;4182796;28;20048;-87
2023/06/03 02:38:10;;;;;;;1.92;0.80;;;11.00;98.50;;;;;;4182432;28;20051;-86
2023/06/03 02:40:12;;;;;;;3.10;0.70;;;10.90;98.40;;;;;;4182359;28;20049;-86
2023/06/03 02:42:12;;;;;;;0.85;0.43;;;10.90;98.40;;;;;;4183864;28;20077;-86
2023/06/03 02:44:15;;;;;;;1.08;0.60;;;10.80;98.50;;;;;;4200220;28;20447;-85
2023/06/03 02:46:16;;;;;;;1.73;0.80;;;10.80;98.60;;;;;;4199587;28;20055;-86
2023/06/03 02:48:16;;;;;;;1.40;0.60;;;10.70;98.70;;;;;;4200474;28;20483;-85
2023/06/03 02:50:20;;;;;;;1.77;0.70;;;10.60;98.80;;;;;;4199418;28;20412;-85
2023/06/03 02:52:22;;;;;;;8.43;1.35;;;10.60;99.00;;;;;;4198830;28;20047;-86
2023/06/03 02:54:23;;;;;;;8.30;1.17;;;10.50;99.20;;;;;;4199914;28;20047;-86
2023/06/03 02:56:24;;;;;;;10.63;1.08;;;10.50;99.40;;;;;;4199946;28;20040;-86
2023/06/03 02:58:26;;;;;;;5.75;1.73;;;10.40;99.60;;;;;;4193169;28;20507;-86
2023/06/03 03:00:27;;;;;;;6.75;1.15;;;10.30;99.80;;;;;;4188734;28;20484;-86
2023/06/03 03:02:28;;;;;;;4.63;1.00;;;10.30;99.90;;;;;;4200406;28;20130;-85
2023/06/03 03:04:36;;;;;;;6.45;1.88;;;10.20;99.90;;;;;;4198520;28;20044;-85
2023/06/03 03:06:37;;;;;;;3.70;0.93;;;10.10;99.90;;;;;;4199137;28;20512;-86
2023/06/03 03:08:38;;;;;;;5.00;0.77;;;10.10;99.90;;;;;;4201055;28;20097;-86
2023/06/03 03:10:39;;;;;;;5.00;0.90;;;10.00;99.90;;;;;;4199970;28;20097;-86
2023/06/03 03:12:39;;;;;;;3.33;0.93;;;10.00;99.90;;;;;;4200198;28;20024;-86
2023/06/03 03:14:40;;;;;;;2.15;0.80;;;10.00;99.90;;;;;;4199933;28;20044;-86
2023/06/03 03:16:41;;;;;;;11.32;1.60;;;10.00;99.90;;;;;;4200050;28;20504;-86
2023/06/03 03:18:44;;;;;;;1.92;0.80;;;9.90;99.90;;;;;;4193699;28;20404;-86
2023/06/03 03:20:45;;;;;;;5.03;0.98;;;9.90;99.90;;;;;;4183780;28;20040;-86
2023/06/03 03:22:46;;;;;;;1.00;0.80;;;9.80;99.90;;;;;;4181744;28;20060;-86
2023/06/03 03:24:50;;;;;;;4.25;1.10;;;9.70;99.90;;;;;;4182532;28;20052;-86
2023/06/03 03:26:51;;;;;;;1.83;0.98;;;9.70;99.90;;;;;;4182912;28;20417;-86
2023/06/03 03:28:52;;;;;;;2.28;0.80;;;9.70;99.90;;;;;;4181450;28;20049;-86
2023/06/03 03:30:55;;;;;;;1.23;0.80;;;9.60;99.90;;;;;;4182084;28;20570;-86
2023/06/03 03:32:58;;;;;;;3.72;1.63;;;9.60;99.90;;;;;;4182664;28;20044;-86
2023/06/03 03:35:12;;;;;;;2.33;0.75;;;9.60;99.90;;;;;;4183047;28;20570;-86
2023/06/03 03:37:13;;;;;;;2.63;1.00;;;9.60;99.90;;;;;;4183007;28;20130;-86
2023/06/03 03:39:14;;;;;;;1.20;0.90;;;9.60;99.90;;;;;;4182465;28;20044;-86
2023/06/03 03:41:14;;;;;;;2.70;0.77;;;9.60;99.90;;;;;;4183925;28;20489;-85
2023/06/03 03:43:19;;;;;;;1.80;0.93;;;9.60;99.90;;;;;;4180732;28;20049;-86
2023/06/03 03:45:22;;;;;;;1.33;0.70;;;9.60;99.90;;;;;;4181390;28;20041;-86
2023/06/03 03:47:23;;;;;;;1.58;0.70;;;9.60;99.90;;;;;;4182608;28;20037;-85
2023/06/03 03:49:28;;;;;;;3.83;0.93;;;9.50;99.90;;;;;;4182967;28;20053;-86
2023/06/03 03:51:32;;;;;;;1.17;0.68;;;9.50;99.90;;;;;;4181993;28;20053;-86
2023/06/03 03:53:36;;;;;;;1.88;0.82;;;9.50;99.90;;;;;;4187816;28;20052;-86
2023/06/03 03:55:57;;;;;;;1.88;0.77;;;9.50;99.90;;;;;;4199659;28;20060;-86
2023/06/03 03:58:03;;;;;;;2.08;0.90;;;9.50;99.90;;;;;;4199154;28;20049;-86
2023/06/03 04:00:09;;;;;;;1.27;0.88;;;9.50;99.90;;;;;;4198442;28;20066;-85
2023/06/03 04:02:10;;;;;;;8.57;0.90;;;9.50;99.90;;;;;;4198598;28;20059;-86
2023/06/03 04:04:23;;;;;;;5.72;0.70;;;9.50;99.90;;;;;;4201552;28;20111;-86
2023/06/03 04:06:36;;;;;;;5.95;1.10;;;9.50;99.90;;;;;;4202032;28;20045;-86
2023/06/03 04:08:44;;;;;;;3.15;1.05;;;9.50;99.90;;;;;;4202336;28;20876;-86
2023/06/03 04:10:45;;;;;;;3.00;0.90;;;9.60;99.90;;;;;;4200552;28;20106;-86
2023/06/03 04:12:48;;;;;;;8.90;1.25;;;9.60;99.90;;;;;;4202596;28;20044;-86
2023/06/03 04:14:51;;;;;;;1.77;0.90;;;9.60;99.90;;;;;;4201243;28;20091;-86
2023/06/03 04:16:56;;;;;;;1.58;0.80;;;9.60;99.90;;;;;;4201231;28;20400;-85
2023/06/03 04:18:57;;;;;;;2.72;0.82;;;9.60;99.90;;;;;;4199869;28;20059;-86
2023/06/03 04:20:59;;;;;;;4.68;1.52;;;9.60;99.90;;;;;;4202987;28;20096;-86
2023/06/03 04:23:04;;;;;;;3.90;1.05;;;9.60;99.90;;;;;;4214669;28;20540;-86
2023/06/03 04:25:09;;;;;;;3.60;0.90;;;9.70;99.90;;;;;;4200080;28;20040;-86
2023/06/03 04:27:09;;;;;;;0.80;0.60;;;9.70;99.90;;;;;;4200024;28;20055;-86
2023/06/03 04:29:10;;;;;;;4.85;0.80;;;9.70;99.90;;;;;;4182222;28;20078;-86
2023/06/03 04:31:12;;;;;;;1.73;1.00;;;9.80;99.90;;;;;;4182964;28;20059;-86
2023/06/03 04:33:13;;;;;;;2.45;0.75;;;9.80;99.90;;;;;;4200140;28;20048;-86
2023/06/03 04:35:13;;;;;;;5.38;1.20;;;9.80;99.90;;;;;;4183679;28;20049;-86
2023/06/03 04:37:15;;;;;;;2.65;0.63;;;9.90;99.90;;;;;;4183378;28;20041;-86
2023/06/03 04:39:17;;;;;;;1.95;0.73;;;10.00;99.90;;;;;;4201797;28;20484;-87
2023/06/03 04:41:27;;;;;;;3.95;0.90;;;10.00;99.90;;;;;;4182228;28;20057;-86
2023/06/03 04:43:29;;;;;;;6.03;0.80;;;10.00;99.90;;;;;;4165967;28;20098;-86
2023/06/03 04:45:31;;;;;;;4.85;0.65;;;10.10;99.90;;;;;;4184724;28;20048;-86
2023/06/03 04:47:33;;;;;;;2.08;0.80;;;10.20;99.90;;;;;;4198816;28;20079;-86
2023/06/03 04:49:35;;;;;;;1.33;0.63;;;10.30;99.90;;;;;;4201324;28;20055;-86
2023/06/03 04:51:44;;;;;;;2.65;0.85;;;10.30;99.90;;;;;;4200195;28;20129;-86
2023/06/03 04:53:46;;;;;;;2.25;1.02;;;10.40;99.90;;;;;;4182555;28;20121;-86
2023/06/03 04:55:46;;;;;;;1.42;0.93;;;10.50;99.90;;;;;;4184540;28;20053;-86
2023/06/03 04:57:50;;;;;;;2.92;1.45;;;10.60;99.90;;;;;;4184522;28;20040;-86
2023/06/03 04:59:52;;;;;;;1.40;0.98;;;10.60;99.90;;;;;;4202067;28;20060;-86
2023/06/03 05:01:53;;;;;;;3.17;0.90;;;10.70;99.90;;;;;;4213088;28;20051;-87
2023/06/03 05:03:55;;;;;;;1.85;1.20;;;10.80;99.90;;;;;;4200917;28;20048;-85
2023/06/03 05:06:00;;;;;;;3.08;0.80;;;10.90;99.90;;;;;;4218561;28;20114;-87
2023/06/03 05:08:01;;;;;;;1.95;1.15;;;10.40;99.90;;;;;;4218319;28;20044;-87
2023/06/03 05:10:02;;;;;;;1.98;1.00;;;11.00;99.90;;;;;;4199633;28;20052;-86
2023/06/03 05:12:03;;;;;;;1.55;0.80;;;11.10;99.90;;;;;;4215907;28;20044;-86
2023/06/03 05:14:04;;;;;;;2.33;0.82;;;11.20;99.90;;;;;;4199465;28;20118;-86
2023/06/03 05:16:05;;;;;;;1.85;0.95;;;11.20;99.90;;;;;;4215018;28;20040;-86
2023/06/03 05:18:05;;;;;;;1.67;0.90;;;11.20;99.90;;;;;;4215435;28;20044;-86
2023/06/03 05:20:09;;;;;;;1.92;1.23;;;11.30;99.90;;;;;;4217319;28;20066;-86
2023/06/03 05:22:09;;;;;;;2.42;0.65;;;11.30;99.90;;;;;;4215183;28;20056;-86
2023/06/03 05:24:11;;;;;;;2.17;0.90;;;11.40;99.90;;;;;;4204621;28;20439;-86
2023/06/03 05:26:12;;;;;;;1.38;0.55;;;11.40;99.90;;;;;;4205266;28;20523;-86
2023/06/03 05:28:12;;;;;;;2.85;0.90;;;11.50;99.90;;;;;;4216782;28;20078;-87
2023/06/03 05:30:13;;;;;;;1.08;0.85;;;11.60;99.90;;;;;;4216034;28;20484;-86
2023/06/03 05:32:14;;;;;;;3.35;0.82;;;11.70;99.90;;;;;;4218276;28;20111;-86
2023/06/03 05:34:16;;;;;;;2.28;0.80;;;11.80;99.90;;;;;;4206552;28;20048;-87
2023/06/03 05:36:17;;;;;;;2.30;1.08;;;11.90;99.90;;;;;;4226382;28;20065;-87
2023/06/03 05:38:18;;;;;;;1.60;1.00;;;12.00;99.90;;;;;;4206128;28;20052;-87
2023/06/03 05:40:20;;;;;;;2.53;0.80;;;12.10;99.90;;;;;;4208800;28;20048;-87
2023/06/03 05:42:20;;;;;;;1.30;0.80;;;12.20;99.90;;;;;;4216426;28;20080;-87
2023/06/03 05:44:21;;;;;;;2.05;0.85;;;12.30;99.90;;;;;;4215564;28;20511;-87
2023/06/03 05:46:22;;;;;;;3.33;0.88;;;12.50;99.90;;;;;;4216425;28;20484;-87
2023/06/03 05:48:23;;;;;;;2.88;1.42;;;12.50;99.90;;;;;;4201804;28;20040;-87
2023/06/03 05:50:24;;;;;;;1.80;0.75;;;12.50;99.90;;;;;;4216184;28;20177;-87
2023/06/03 05:52:26;;;;;;;2.53;1.00;;;12.70;99.90;;;;;;4209204;28;20178;-85
2023/06/03 05:54:28;;;;;;;2.80;1.58;;;12.80;99.90;;;;;;4210012;28;20404;-86
2023/06/03 05:56:29;;;;;;;2.60;0.85;;;12.90;99.90;;;;;;4195059;28;20156;-86
2023/06/03 05:58:29;;;;;;;1.55;0.65;;;13.00;99.90;;;;;;4216376;28;20044;-86
2023/06/03 06:00:30;;;;;;;3.38;0.85;;;13.00;99.90;;;;;;4203564;28;20048;-86
2023/06/03 06:02:32;;;;;;;1.52;0.90;;;13.10;99.90;;;;;;4215369;28;20044;-85
2023/06/03 06:04:33;;;;;;;4.45;1.10;;;13.10;99.90;;;;;;4202032;28;20057;-86
2023/06/03 06:06:34;;;;;;;1.20;0.70;;;13.20;99.90;;;;;;4203110;28;20444;-84
2023/06/03 06:08:35;;;;;;;3.00;0.80;;;13.30;99.90;;;;;;4215351;28;20048;-84
2023/06/03 06:10:36;;;;;;;2.15;0.82;;;13.30;99.90;;;;;;4188933;28;20086;-85
2023/06/03 06:12:37;;;;;;;2.20;0.63;;;13.40;99.90;;;;;;4215805;28;20044;-85
2023/06/03 06:14:38;;;;;;;5.03;1.30;;;13.50;99.90;;;;;;4216835;28;20040;-86
2023/06/03 06:16:39;;;;;;;2.90;0.80;;;13.60;99.90;;;;;;4203545;28;20036;-85
2023/06/03 06:18:40;;;;;;;1.83;0.50;;;13.70;99.90;;;;;;4210329;28;20040;-86
2023/06/03 06:20:41;;;;;;;1.60;0.80;;;13.80;99.80;;;;;;4217418;28;20040;-87
2023/06/03 06:22:42;;;;;;;2.05;0.85;;;13.90;99.60;;;;;;4201249;28;20505;-86
2023/06/03 06:24:44;;;;;;;1.10;0.68;;;14.00;99.30;;;;;;4217299;28;20169;-87
2023/06/03 06:26:47;;;;;;;1.77;0.80;;;14.10;99.00;;;;;;4207170;28;20134;-87
2023/06/03 06:28:48;;;;;;;3.38;0.82;;;14.20;99.00;;;;;;4215770;28;20044;-86
2023/06/03 06:30:53;;;;;;;2.03;0.60;;;14.20;98.50;;;;;;4216421;28;20048;-87
2023/06/03 06:32:54;;;;;;;2.33;0.80;;;14.20;98.10;;;;;;4186194;28;20052;-87
2023/06/03 06:34:55;;;;;;;2.58;0.95;;;14.30;97.90;;;;;;4206923;28;20063;-85
2023/06/03 06:36:56;;;;;;;2.42;0.60;;;14.40;97.70;;;;;;4208647;28;20603;-87
2023/06/03 06:38:57;;;;;;;1.15;0.57;;;14.20;97.30;;;;;;4187296;28;20124;-86
2023/06/03 06:40:59;;;;;;;2.53;0.77;;;14.50;97.20;;;;;;4215444;28;20098;-86
2023/06/03 06:43:02;;;;;;;1.48;0.60;;;14.50;96.90;;;;;;4217770;28;20051;-87
2023/06/03 06:45:10;;;;;;;1.38;0.68;;;14.60;96.80;;;;;;4207158;28;20059;-86
2023/06/03 06:47:14;;;;;;;2.22;0.50;;;14.70;96.50;;;;;;4209276;28;20036;-86
2023/06/03 06:49:14;;;;;;;4.47;0.60;;;14.80;96.40;;;;;;4201414;28;20088;-86
2023/06/03 06:51:19;;;;;;;1.90;0.75;;;14.90;96.30;;;;;;4215557;28;20040;-85
2023/06/03 06:53:21;;;;;;;1.45;0.75;;;15.00;96.30;;;;;;4215928;28;20056;-87
2023/06/03 06:55:48;;;;;;;1.45;0.73;;;15.10;96.00;;;;;;4214638;28;20044;-87
2023/06/03 06:57:49;;;;;;;1.30;0.70;;;15.20;95.40;;;;;;4194568;28;20070;-87
2023/06/03 06:59:53;;;;;;;1.33;0.73;;;15.30;95.60;;;;;;4193863;28;20044;-87
2023/06/03 07:01:54;;;;;;;3.00;0.52;;;15.50;95.40;;;;;;4214616;28;20048;-86
2023/06/03 07:03:55;;;;;;;1.85;0.70;;;15.60;95.00;;;;;;4186729;28;20088;-87
2023/06/03 07:05:55;;;;;;;1.27;0.50;;;15.80;95.00;;;;;;4185910;28;20088;-87
2023/06/03 07:07:56;;;;;;;2.40;0.60;;;15.90;94.50;;;;;;4184374;28;20041;-86
2023/06/03 07:09:57;;;;;;;1.50;0.52;;;16.00;94.30;;;;;;4206234;28;20040;-87
2023/06/03 07:11:58;;;;;;;2.65;0.77;;;16.10;94.10;;;;;;4206129;28;20134;-87
2023/06/03 07:13:58;;;;;;;4.40;0.70;;;16.20;93.90;;;;;;4207194;28;20043;-85
2023/06/03 07:16:00;;;;;;;2.72;0.43;;;16.30;93.50;;;;;;4213837;28;20142;-85
2023/06/03 07:18:00;;;;;;;2.05;0.60;;;16.40;93.10;;;;;;4215754;28;20085;-87
2023/06/03 07:20:05;;;;;;;2.78;0.70;;;16.60;93.00;;;;;;4193494;28;20528;-84
2023/06/03 07:22:07;;;;;;;0.90;0.60;;;16.70;92.40;;;;;;4207637;28;20504;-85
2023/06/03 07:24:11;;;;;;;2.28;0.52;;;16.80;92.40;;;;;;4203424;28;20095;-85
2023/06/03 07:26:13;;;;;;;2.97;0.60;;;16.90;92.00;;;;;;4214087;28;20395;-85
2023/06/03 07:28:20;;;;;;;2.05;0.65;;;16.90;91.90;;;;;;4206106;28;20033;-85
2023/06/03 07:30:20;;;;;;;2.00;0.80;;;16.80;91.70;;;;;;4196830;28;20415;-86
2023/06/03 07:32:25;;;;;;;1.33;0.50;;;16.70;91.80;;;;;;4199518;28;20052;-85
2023/06/03 07:34:27;;;;;;;0.77;0.40;;;16.60;91.30;;;;;;4206775;28;20051;-82
2023/06/03 07:36:28;;;;;;;1.75;0.50;;;16.50;90.90;;;;;;4202344;28;20044;-83
2023/06/03 07:39:04;;;;;;;0.73;0.50;;;16.40;90.80;;;;;;4208949;28;20048;-83
2023/06/03 07:41:06;;;;;;;4.38;0.60;;;16.40;90.30;;;;;;4203502;28;20090;-83
2023/06/03 07:43:11;;;;;;;2.85;0.60;;;16.40;90.80;;;;;;4204545;28;20546;-83
2023/06/03 07:45:13;;;;;;;0.55;0.32;;;16.30;90.80;;;;;;4209307;28;20130;-84
2023/06/03 07:47:16;;;;;;;0.85;0.50;;;16.30;91.10;;;;;;4201585;28;20446;-82
2023/06/03 07:49:19;;;;;;;2.28;0.70;;;16.30;91.40;;;;;;4202782;28;20593;-84
2023/06/03 07:51:19;;;;;;;1.10;0.60;;;16.30;91.40;;;;;;4211649;28;20052;-84
2023/06/03 07:53:24;;;;;;;3.25;0.50;;;16.30;91.20;;;;;;4217231;28;20518;-83
2023/06/03 07:55:51;;;;;;;1.38;0.40;;;16.30;91.30;;;;;;4218238;28;21328;-85
2023/06/03 07:57:52;;;;;;;1.48;0.57;;;16.30;90.80;;;;;;4200832;28;20090;-83
2023/06/03 07:59:55;;;;;;;2.90;0.70;;;16.40;91.50;;;;;;4205955;28;20373;-83
2023/06/03 08:02:00;;;;;;;1.02;0.68;;;16.40;91.10;;;;;;4214605;28;20076;-84
2023/06/03 08:04:27;;;;;;;0.82;0.57;;;16.40;91.10;;;;;;4189883;28;20041;-84
2023/06/03 08:06:28;;;;;;;1.55;0.60;;;16.40;91.40;;;;;;4204369;28;20488;-84
2023/06/03 08:08:32;;;;;;;0.95;0.50;;;16.50;91.90;;;;;;4216099;28;20115;-83
2023/06/03 08:10:34;;;;;;;1.90;0.60;;;16.60;91.90;;;;;;4217221;28;20075;-84
2023/06/03 08:12:36;;;;;;;0.93;0.60;;;16.70;91.80;;;;;;4203266;28;20052;-83
2023/06/03 08:14:39;;;;;;;2.95;0.95;;;16.80;91.60;;;;;;4212826;28;20100;-83
2023/06/03 08:16:40;;;;;;;0.63;0.20;;;16.90;91.40;;;;;;4215685;28;20039;-84
2023/06/03 08:18:47;;;;;;;2.72;0.80;;;17.00;91.60;;;;;;4205347;28;20049;-85
2023/06/03 08:20:49;;;;;;;2.53;0.60;;;17.20;91.10;;;;;;4194732;28;20091;-83
2023/06/03 08:22:50;;;;;;;3.25;0.60;;;17.30;91.10;;;;;;4211185;28;20054;-86
2023/06/03 08:24:51;;;;;;;4.53;0.98;;;17.50;90.60;;;;;;4219245;28;20434;-86
2023/06/03 08:26:55;;;;;;;0.95;0.50;;;17.50;90.10;;;;;;4216513;28;20582;-87
2023/06/03 08:28:56;;;;;;;2.30;0.90;;;17.60;90.10;;;;;;4201257;28;20075;-87
2023/06/03 08:30:57;;;;;;;1.13;0.57;;;17.70;89.70;;;;;;4216709;28;20044;-87
2023/06/03 08:32:58;;;;;;;3.42;0.65;;;17.90;89.30;;;;;;4201173;28;20044;-87
2023/06/03 08:35:01;;;;;;;2.25;0.50;;;18.10;88.40;;;;;;4200093;28;20366;-88
2023/06/03 08:37:03;;;;;;;1.10;0.50;;;;;;;;;;4217777;28;20048;-87
2023/06/03 08:39:07;;;;;;;3.42;0.70;;;;;;;;;;4172621;28;20049;-89
2023/06/03 08:41:09;;;;;;;1.00;0.50;;;;;;;;;;4183110;28;20052;-87
2023/06/03 08:43:11;;;;;;;0.90;0.50;;;;;;;;;;4185074;28;20036;-87
2023/06/03 08:45:21;;;;;;;0.75;0.40;;;;;;;;;;4184216;28;20045;-88
2023/06/03 08:47:37;;;;;;;1.13;0.57;;;18.40;88.40;;;;;;4201559;28;20052;-88
2023/06/03 08:49:58;;;;;;;0.65;0.40;;;19.60;81.80;;;;;;4183808;28;20050;-88
2023/06/03 08:52:00;;;;;;;1.73;0.50;;;19.70;79.70;;;;;;4168895;28;20128;-87
2023/06/03 08:54:13;;;;;;;0.93;0.70;;;19.60;80.90;;;;;;4201000;28;20098;-87
2023/06/03 08:56:19;;;;;;;1.40;0.68;;;19.80;79.90;;;;;;4185408;28;20076;-87
2023/06/03 08:58:25;;;;;;;3.03;0.68;;;20.00;79.40;;;;;;4183613;28;20118;-87
2023/06/03 09:00:26;;;;;;;1.83;0.70;;;20.20;76.70;;;;;;4182580;28;20087;-87
2023/06/03 09:02:29;;;;;;;1.50;0.65;;;20.40;76.60;;;;;;4212213;28;20048;-87
2023/06/03 09:04:32;;;;;;;2.55;0.35;;;20.60;76.10;;;;;;4215884;28;20079;-87
2023/06/03 09:06:32;;;;;;;1.00;0.40;;;20.80;75.60;;;;;;4201186;28;20056;-87
2023/06/03 09:08:36;;;;;;;4.75;0.60;;;21.10;75.30;;;;;;4199679;28;20048;-87
2023/06/03 09:10:37;;;;;;;3.40;0.50;;;21.30;73.50;;;;;;4218753;28;20061;-87
2023/06/03 09:12:39;;;;;;;2.08;0.77;;;21.40;72.20;;;;;;4216608;28;20126;-87
2023/06/03 09:14:40;;;;;;;3.13;0.55;;;21.50;71.40;;;;;;4217620;28;20081;-87
2023/06/03 09:16:42;;;;;;;1.02;0.50;;;21.70;70.50;;;;;;4201013;28;20052;-87
2023/06/03 09:18:43;;;;;;;0.80;0.50;;;22.00;70.50;;;;;;4185889;28;20049;-87
2023/06/03 09:20:44;;;;;;;1.85;0.57;;;22.20;70.10;;;;;;4167349;28;20924;-87
2023/06/03 09:22:48;;;;;;;0.30;0.30;;;22.30;68.90;;;;;;4200724;28;20092;-87
2023/06/03 09:24:49;;;;;;;1.63;0.50;;;22.30;67.60;;;;;;4183905;28;20522;-87
2023/06/03 09:26:50;;;;;;;0.30;0.30;;;22.30;67.30;;;;;;4183632;28;20563;-87
2023/06/03 09:28:51;;;;;;;1.85;0.47;;;22.40;66.20;;;;;;4182962;28;20091;-87
2023/06/03 09:30:52;;;;;;;1.15;0.52;;;22.60;65.60;;;;;;4167804;28;20049;-88
2023/06/03 09:32:53;;;;;;;1.95;0.60;;;22.80;64.60;;;;;;4183698;28;20085;-88
2023/06/03 09:34:54;;;;;;;2.60;0.30;;;22.80;63.80;;;;;;4203304;28;20104;-88
2023/06/03 09:37:05;;;;;;;0.70;0.45;;;22.70;62.50;;;;;;4215950;28;20430;-86
2023/06/03 09:39:06;;;;;;;2.15;0.40;;;22.80;61.50;;;;;;4203275;28;20522;-87
2023/06/03 09:41:18;;;;;;;1.85;0.50;;;22.70;61.50;;;;;;4202306;28;20040;-86
2023/06/03 09:43:21;;;;;;;1.05;0.40;;;22.80;59.60;;;;;;4169637;28;20052;-87
2023/06/03 09:45:29;;;;;;;1.17;0.50;;;22.90;60.80;;;;;;4207492;28;20045;-87
2023/06/03 09:47:35;;;;;;;3.50;0.60;;;23.10;60.50;;;;;;4190548;28;20045;-89
2023/06/03 09:49:38;;;;;;;2.55;0.50;;;23.40;60.30;;;;;;4170991;28;20490;-87
2023/06/03 09:51:44;;;;;;;1.65;0.43;;;23.60;59.60;;;;;;4204809;28;20048;-88
2023/06/03 09:53:45;;;;;;;2.00;0.47;;;23.70;59.00;;;;;;4200226;28;20044;-87
2023/06/03 09:55:48;;;;;;;0.68;0.45;;;23.90;58.70;;;;;;4217586;28;20124;-87
2023/06/03 09:58:03;;;;;;;1.77;0.50;;;;;;;;;;4200255;28;20404;-87
2023/06/03 10:00:12;;;;;;;0.65;0.38;;;24.00;57.50;;;;;;4203608;28;20579;-87
2023/06/03 10:02:20;;;;;;;;;;;24.30;57.30;;;;;;4207814;28;20106;-87
2023/06/03 10:04:36;;;;;;;2.85;0.68;;;24.50;55.10;;;;;;4209619;28;19920;-87
2023/06/03 10:06:39;;;;;;;2.58;0.43;;;24.30;56.30;;;;;;4207837;28;20087;-88
2023/06/03 10:08:41;;;;;;;1.48;0.40;;;24.30;56.00;;;;;;4225522;28;20170;-88
2023/06/03 10:11:01;;;;;;;2.90;0.70;;;24.30;54.70;;;;;;4195413;28;20505;-88
2023/06/03 10:13:22;;;;;;;1.75;0.65;;;24.10;53.80;;;;;;4181895;28;20160;-88
2023/06/03 10:15:37;;;;;;;1.15;0.35;;;24.30;53.60;;;;;;4182378;28;20045;-87
2023/06/03 10:17:45;;;;;;;1.38;0.77;;;24.40;52.10;;;;;;4184121;28;20052;-87
2023/06/03 10:19:48;;;;;;;3.65;0.57;;;24.40;52.70;;;;;;4182647;28;20049;-87
2023/06/03 10:21:49;;;;;;;1.63;0.60;;;24.30;51.20;;;;;;4182699;28;20866;-87
2023/06/03 10:23:55;;;;;;;4.40;0.65;;;24.10;52.20;;;;;;4199410;28;20045;-87
2023/06/03 10:25:57;;;;;;;1.30;0.80;;;24.30;53.70;;;;;;4198921;28;20048;-87
2023/06/03 10:28:00;;;;;;;2.75;0.60;;;24.50;53.00;;;;;;4195914;28;20037;-89
2023/06/03 10:30:07;;;;;;;1.63;0.60;;;;;;;;;;4196923;28;20067;-86
2023/06/03 10:32:14;;;;;;;1.17;0.55;;;24.60;53.30;;;;;;4189675;28;20049;-87
2023/06/03 10:34:16;;;;;;;2.67;0.40;;;25.20;52.10;;;;;;4197136;28;20050;-87
2023/06/03 10:36:17;;;;;;;0.40;0.40;;;;;;;;;;4197816;28;20044;-87
2023/06/03 10:38:19;;;;;;;1.25;0.57;;;25.30;52.30;;;;;;4197445;28;20052;-87
2023/06/03 10:40:21;;;;;;;2.90;0.65;;;25.50;51.90;;;;;;4197040;28;20052;-86
2023/06/03 10:42:23;;;;;;;1.50;0.60;;;25.60;51.90;;;;;;4197291;28;20048;-89
2023/06/03 10:44:24;;;;;;;1.75;0.68;;;25.70;51.40;;;;;;4197990;28;20864;-88